Terminal Aerodrome Forecast
Issued by NWS Norman, OK

Home | Current Version | Previous Version | Text Only | Print | Product List | Glossary On
Versions: 1 2 3 4 5 6 7 8 9 10 11 12 13 14 15 16 17 18 19 20 21 22 23 24 25 26 27 28 29 30 31 32 33 34 35 36
000
FTUS44 KOUN 071743
TAFSPS
TAF
KSPS 071743Z 0718/0818 04008KT P6SM BKN050
     FM072300 01016G24KT P6SM OVC050
      TEMPO 0807/0811 OVC020
     FM081500 01016KT P6SM OVC080=

USA.gov is the U.S. government's official web portal to all federal, state and local government web resources and services.